x

Virginia Beach 64 Nm East Of Virginia Beach, Va (44014) Wave Buoy

12:50 - Thu 23rd Mar 2017 All times are EDT. -4 hours from GMT.

  • Sig Wave height 5.2ft
  • Swell Direction
  • Peak Period 8s
  • Average Period 5s
  • Wind
    20mph, 25mph gusts
  • Sea Temp 50°f
  • Luft Temp 38°f
  • Sea Pressure 1036.5mb
  • Virginia Beach 64 Nm East Of Virginia Beach, Va
  • Virginia Beach 64 Nm East Of Virginia Beach, Va

More Historic Weather Station data

Upgrade to MSW Pro to gain access to the past 30 days of data for over 8000 Wavebouys and Weather Stations around the globe.

Join Pro

Comparision Forecast

View Surf forecast
   
Do 03/23 12:50 5ft 8s 5s 20 25 mph 1036.5mb 50f 38f
11:50 7ft 8s 5s 18 22 mph 1036.8mb 50f 37f
10:50 7ft 7s 6s 20 25 mph 1036.5mb 50f 38f
9:50 7.5ft 8s 6s 20 25 mph 1036.3mb 50f 37f
8:50 7ft 8s 6s 20 25 mph 1035.6mb 50f 38f
7:50 8ft 8s 6s 20 27 mph 1034.7mb 50f 38f
6:50 8.5ft 8s 6s 22 29 mph 1033.3mb 50f 39f
5:50 8ft 8s 6s 25 29 mph 1032.5mb 50f 39f
4:50 8.5ft 8s 6s 27 31 mph 1031.2mb 49f 40f
3:50 8.5ft 8s  -  27 31 mph 1030.7mb 49f 40f
2:50 9ft 8s 6s 22 27 mph 1030.4mb 49f 41f
1:50 10ft 8s 6s 25 29 mph 1030.4mb 49f 42f
12:50 10ft 8s 6s 25 31 mph 1030mb 49f 42f
Mi 03/22 11:50 9.5ft 9s 6s 25 31 mph 1029.3mb 49f 42f
10:50 9ft 8s 6s 27 34 mph 1028.5mb 49f 43f
9:50 8.5ft 8s 6s 27 31 mph 1027.8mb 48f 43f
8:50 8ft 8s 5s 25 29 mph 1027mb 48f 43f
7:50 8ft 8s 6s 22 27 mph 1026.1mb 48f 44f
6:50 9ft 8s 6s 22 27 mph 1024.9mb 50f 44f
5:50 8.5ft 6s 5s 22 27 mph 1023.7mb 51f 45f
4:50 8ft 7s 5s 25 29 mph 1022.6mb 49f 45f
3:50 7.5ft 6s 5s 25 29 mph 1021.7mb 49f 44f
2:50 8ft 6s 5s 27 31 mph 1020.8mb 48f 45f
1:50 7.5ft 6s 5s 29 36 mph 1020.1mb 48f 46f
12:50 7ft 5s 5s 29 34 mph 1019.4mb 48f 47f
11:50 5.5ft 4s 4s 29 34 mph 1018.3mb 48f 48f
10:50 3.5ft 10s 4s 31 38 mph 1017.1mb 48f 50f
9:50 3ft 10s 6s 16 20 mph 1016mb 48f 50f
8:50 3.5ft 10s 7s 11 13 mph 1014mb 48f 48f
7:50 3.5ft 11s 7s 9 11 mph 1013.5mb 48f 48f
6:50 4ft 11s 7s 2 4 mph 1013.3mb 48f 48f
5:50 4.5ft 10s 7s 2 4 mph 1013.1mb 48f 49f
4:50 4ft 10s 7s 7 9 mph 1013.1mb 48f 49f
3:50 4.5ft 11s 7s 7
mph
1012.8mb 48f 49f
2:50 4.5ft 10s 7s 7 9 mph 1013.3mb 48f 49f
1:50 4.5ft 11s 7s 4 7 mph 1013.4mb 48f 49f
12:50 4.5ft 11s 8s 4 7 mph 1013.5mb 48f 49f
Di 03/21 11:50 4.5ft 11s 8s 7
mph
1013.2mb 48f 50f
10:50 4.5ft 10s 8s 2 4 mph 1013.7mb 49f 49f
9:50 4.5ft 10s 8s 4
mph
1013.9mb 49f 49f
8:50 4.5ft 11s 8s 7 9 mph 1013.9mb 49f 49f
7:50 4.5ft 10s 8s 9
mph
1013.4mb 49f 49f
6:50 4.5ft 11s 8s 9 11 mph 1013.5mb 50f 50f
5:50 4.5ft 10s 8s 11 13 mph 1013.1mb 50f 51f
4:50 5ft 11s 8s 9 11 mph 1012.6mb 50f 51f
3:50 5ft 11s 8s 11 13 mph 1012.4mb 51f 52f
2:50 5.5ft 11s 8s 9 11 mph 1012.6mb 51f 53f
1:50 5ft 11s 8s 11 16 mph 1012.8mb 51f 54f
12:50 5ft 12s 7s 11 13 mph 1013.3mb 51f 55f
11:50 5.5ft 11s 7s 13 16 mph 1014mb 53f 54f
10:50 6ft 11s 7s 16 20 mph 1014.2mb 53f 53f
9:50 5.5ft 10s 7s 16 20 mph 1014.5mb 53f 52f
8:50 6.5ft 11s 8s 13 16 mph 1014.4mb 53f 52f
6:50 6.5ft 12s 8s 13 18 mph 1014.9mb 53f 52f
5:50 7ft 11s 8s 11 18 mph 1015.1mb 53f 51f
4:50 8.5ft 11s 9s 11 16 mph 1015.6mb 53f 50f
3:50 8ft 11s 9s 13 16 mph 1015.9mb 53f 50f
2:50 7ft 11s 9s 13 16 mph 1016.8mb 53f 49f
1:50 8ft 11s 9s 7 11 mph 1017.8mb 53f 49f
12:50 7.5ft 11s 9s 7 11 mph 1018.5mb 53f 48f
Mo 03/20 11:50 7.5ft 10s 9s 7 11 mph 1018.5mb 53f 48f
10:50 8ft 11s 8s 9 11 mph 1018.8mb 53f 48f
9:50 8.5ft 11s 8s 7 9 mph 1018.4mb 53f 48f
8:50 8ft 11s 8s 7 11 mph 1018.7mb 51f 47f
7:50 8.5ft 11s 8s 9 11 mph 1018.2mb 51f 47f
6:50 8.5ft 11s 8s 11 13 mph 1018.5mb 51f 46f
5:50 8ft 11s 7s 13 16 mph 1018.6mb 51f 46f
4:50 10ft 11s 8s 16 18 mph 1018.8mb 50f 46f
3:50 9.5ft 11s 8s 16 20 mph 1019.2mb 50f 45f
2:50 9ft 11s 7s 16 20 mph 1019.5mb 50f 44f
1:50 10ft 11s 7s 20 22 mph 1020.5mb 50f 43f
12:50 9ft 11s 7s 18 22 mph 1020.8mb 50f 43f
11:50 9.5ft 11s 7s 18 22 mph 1020.7mb 50f 44f
10:50 9ft 11s 7s 18 22 mph 1020.6mb 50f 44f
9:50 9ft 11s 7s 20 25 mph 1020.9mb 50f 44f
8:50 9ft 11s 7s 22 27 mph 1021mb 51f 44f
7:50 10ft 11s 7s 22 27 mph 1020.5mb 51f 44f
6:50 10.5ft 10s 7s 25 31 mph 1020.1mb 51f 44f
5:50 10ft 11s 7s 22 29 mph 1019.6mb 51f 45f
4:50 9.5ft 11s 6s 25 29 mph 1019.4mb 51f 45f
3:50 9.5ft 11s 7s 25 29 mph 1019.4mb 51f 45f
2:50 10ft 11s 7s 25 29 mph 1020.1mb 51f 46f
1:50 9ft 11s 7s 25 29 mph 1020.3mb 51f 46f
12:50 9.5ft 10s 7s 22 27 mph 1020.5mb 50f 45f
So 03/19 11:50 11ft 11s 7s 20 25 mph 1021mb 50f 45f
10:50 10ft 11s 7s 20 25 mph 1021mb 49f 45f
9:50 9.5ft 9s 6s 22 27 mph 1020.8mb 49f 45f
8:50 10.5ft 10s 6s 22 27 mph 1020.4mb 49f 45f
7:50 12ft 10s 7s 27 31 mph 1019.7mb 48f 45f
6:50 13ft 10s 7s 29 36 mph 1019mb 48f 44f